Station: Stawell  

  Atmospheric Gas Attenuation - ITU Rec 676-11   ----------------- dB/100km -----------------
Date Time Temp RH % AH g/m3 Dew Point Wind Direction Speed kph Gust kph Barometer mB Rainfall Since 9am 24GHz 47GHz 76GHz 122GHz 134GHz 241GHz
08/05 12:30 16.3 68 9.43 10.4 17 30 1025.3 0 21.2 27.0 42.4 111.2 107.1 369.1
08/05 12:20 15.7 70 9.37 10.2 15 20 1025.5 0 21.1 27.0 42.5 111.4 107.1 369.2
08/05 12:10 15.8 69 9.29 10.1 15 20 1025.5 0 20.9 26.9 42.1 110.4 105.9 365.0
08/05 12:00 16.1 68 9.32 10.2 17 26 1025.5 0 21.0 26.8 42.1 110.3 105.9 365.0
08/05 11:50 15.1 71 9.16 9.9 24 30 1025.5 0 20.7 26.9 41.9 110.0 105.2 362.2
08/05 11:40 15.3 71 9.27 10.1 15 17 1025.5 0 20.9 27.0 42.3 110.9 106.4 366.4
08/05 11:30 15.5 72 9.52 10.5 17 28 1025.5 0 21.4 27.4 43.2 113.4 109.4 377.2
08/05 11:20 15.5 72 9.52 10.5 20 24 1025.4 0 21.4 27.3 43.2 113.3 109.4 377.1
08/05 11:10 15 74 9.49 10.4 9 15 1025.3 0 21.4 27.4 43.3 113.7 109.7 378.1
08/05 11:00 14.9 71 9.05 9.7 19 32 1025.3 0 20.5 26.8 41.6 109.1 103.9 357.9
08/05 10:50 15.3 72 9.4 10.3 19 30 1025.2 0 21.2 27.2 42.8 112.3 108.1 372.4
08/05 10:40 14.8 72 9.12 9.8 20 37 1025.1 0 20.6 26.9 41.9 110.0 105.0 361.6
08/05 10:30 14.7 74 9.32 10.1 17 30 1025.1 0 21.1 27.3 42.8 112.3 107.8 371.4
08/05 10:20 14.6 77 9.64 10.6 11 17 1025.1 0 21.8 27.8 44.2 116.0 112.3 387.1
08/05 10:10 14.1 78 9.47 10.3 20 22 1025.1 0 21.4 27.7 43.7 114.8 110.7 381.5
08/05 10:00 14.4 80 9.89 11 15 28 1025.1 0 22.3 28.3 45.3 119.0 116.0 400.2
08/05 09:50 13.4 83 9.65 10.6 19 28 1025.2 0 21.8 28.2 44.9 117.9 114.2 393.7
08/05 09:40 13.3 83 9.59 10.5 19 24 1025.3 0 21.7 28.2 44.7 117.4 113.5 391.3
08/05 09:30 13.4 84 9.77 10.8 15 28 1025.3 0 22.1 28.4 45.4 119.2 115.9 399.5
08/05 09:20 13.3 84 9.71 10.7 15 22 1025.3 0 22.0 28.4 45.2 118.7 115.2 397.1
08/05 09:10 13 85 9.64 10.5 13 17 1025.3 0 21.8 28.3 45.1 118.4 114.7 395.2
08/05 09:00 13.2 84 9.65 10.6 15 22 1025.3 0 21.9 28.3 45.0 118.2 114.5 394.7
08/05 08:50 13.2 86 9.88 10.9 11 17 1025.3 0 22.3 28.7 46.0 120.8 117.7 406.0
08/05 08:40 12.9 86 9.69 10.6 11 17 1025.2 0 22.0 28.4 45.4 119.1 115.5 398.2
08/05 08:30 12.8 87 9.75 10.7 17 24 1025 0 22.1 28.6 45.7 119.9 116.5 401.6
08/05 08:20 12.5 88 9.68 10.6 15 19 1024.8 0 22.0 28.5 45.5 119.5 116.0 399.6
08/05 08:10 12.4 88 9.62 10.5 15 20 1024.8 0 21.8 28.5 45.3 119.0 115.3 397.2
08/05 08:00 12.2 88 9.5 10.3 17 33 1024.6 0 21.6 28.3 44.9 117.9 113.9 392.2
08/05 07:50 12.1 87 9.33 10 19 24 1024.6 0 21.2 28.1 44.2 116.1 111.6 384.4
08/05 07:40 12.1 88 9.44 10.2 11 17 1024.5 0 21.5 28.2 44.7 117.4 113.2 389.7
08/05 07:30 12 88 9.38 10.1 9 19 1024.4 0 21.3 28.2 44.5 116.8 112.4 387.3
08/05 07:20 12 88 9.38 10.1 9 11 1024.3 0 21.3 28.2 44.5 116.8 112.4 387.2
08/05 07:10 12.1 88 9.44 10.2 9 13 1024.3 0 21.5 28.2 44.7 117.3 113.1 389.7
08/05 07:00 12.1 87 9.33 10 15 24 1024.3 0 21.2 28.1 44.2 116.1 111.6 384.3
08/05 06:50 12.3 86 9.34 10 15 20 1024.2 0 21.2 28.0 44.2 115.9 111.4 383.8
08/05 06:40 12.3 86 9.34 10 9 11 1024.1 0 21.2 28.0 44.2 115.9 111.4 383.7
08/05 06:30 12.3 87 9.45 10.2 11 19 1024 0 21.5 28.2 44.6 117.1 112.9 389.1
08/05 06:20 12.1 89 9.55 10.3 9 11 1023.9 0 21.7 28.4 45.2 118.6 114.6 395.0
08/05 06:10 12 90 9.59 10.4 9 11 1023.7 0 21.8 28.5 45.4 119.1 115.3 397.4
08/05 06:00 12.1 90 9.65 10.5 9 19 1023.6 0 21.9 28.6 45.6 119.7 116.0 399.8
08/05 05:50 12.2 89 9.61 10.4 11 17 1023.5 0 21.8 28.5 45.3 119.0 115.3 397.3
08/05 05:40 12.3 88 9.56 10.4 13 17 1023.2 0 21.7 28.3 45.0 118.3 114.4 394.2
08/05 05:30 12.3 89 9.67 10.5 11 19 1023.3 0 21.9 28.5 45.5 119.6 116.0 399.7
08/05 05:20 12.1 91 9.76 10.7 13 17 1023.3 0 22.2 28.8 46.0 120.9 117.6 405.2
08/05 05:10 12.1 90 9.65 10.5 11 13 1023 0 21.9 28.6 45.5 119.6 116.0 399.6
08/05 05:00 12 90 9.59 10.4 11 17 1023 0 21.8 28.5 45.3 119.1 115.3 397.2
08/05 04:50 12.1 90 9.65 10.5 7 11 1022.9 0 21.9 28.5 45.5 119.6 116.0 399.6
08/05 04:40 12 90 9.59 10.4 7 11 1022.8 0 21.8 28.5 45.3 119.0 115.3 397.1
08/05 04:30 11.9 90 9.53 10.3 13 20 1022.6 0 21.7 28.4 45.1 118.5 114.5 394.6
08/05 04:20 12 90 9.59 10.4 13 17 1022.5 0 21.8 28.5 45.3 119.0 115.2 397.0
08/05 04:10 12 90 9.59 10.4 13 19 1022.3 0 21.8 28.5 45.3 119.0 115.2 396.9
08/05 04:00 11.8 92 9.68 10.5 13 22 1022.5 0 22.0 28.7 45.8 120.4 116.8 402.5
08/05 03:50 11.6 93 9.67 10.5 17 19 1022.2 0 22.0 28.7 45.9 120.5 116.9 403.0
08/05 03:40 11.5 93 9.61 10.4 17 24 1022.3 0 21.9 28.7 45.7 120.0 116.3 400.5
08/05 03:30 11.5 93 9.61 10.4 17 26 1022.5 0 21.9 28.7 45.7 120.0 116.3 400.6
08/05 03:20 11.4 93 9.55 10.3 19 22 1022.5 0 21.7 28.6 45.5 119.5 115.6 398.1
08/05 03:10 11.4 93 9.55 10.3 15 17 1022.6 0 21.7 28.6 45.5 119.5 115.6 398.1
08/05 03:00 11.4 92 9.44 10.1 13 19 1022.9 0 21.5 28.4 45.0 118.3 114.0 392.8
08/05 02:50 11.5 90 9.3 9.9 9 13 1022.7 0 21.2 28.1 44.4 116.5 111.9 385.3
08/05 02:40 11.6 90 9.36 10 15 19 1022.6 0 21.3 28.2 44.6 117.0 112.6 387.7
08/05 02:30 11.6 90 9.36 10 13 20 1023 0 21.3 28.2 44.6 117.0 112.6 387.8
08/05 02:20 11.5 91 9.4 10.1 13 15 1023 0 21.4 28.3 44.8 117.7 113.3 390.3
08/05 02:10 11.4 92 9.44 10.1 9 9 1023.3 0 21.5 28.4 45.1 118.3 114.1 392.9
08/05 02:00 11.3 91 9.28 9.9 11 19 1023.5 0 21.2 28.2 44.4 116.6 112.0 385.6
08/05 01:50 11.2 91 9.23 9.8 9 13 1023.6 0 21.1 28.1 44.3 116.2 111.4 383.6
08/05 01:40 11.3 91 9.28 9.9 9 11 1023.7 0 21.2 28.2 44.4 116.7 112.0 385.6
08/05 01:30 11.3 90 9.18 9.7 11 20 1023.8 0 20.9 28.0 44.0 115.5 110.6 380.7
08/05 01:20 11.3 91 9.28 9.9 11 15 1023.9 0 21.2 28.2 44.5 116.7 112.0 385.7
08/05 01:10 11.1 91 9.17 9.7 6 9 1024 0 20.9 28.1 44.1 115.7 110.8 381.3
08/05 01:00 11.1 92 9.27 9.9 11 19 1024 0 21.1 28.3 44.5 116.9 112.2 386.2
08/05 00:50 11 92 9.21 9.8 6 7 1024 0 21.0 28.2 44.3 116.3 111.5 383.7
08/05 00:40 11 91 9.11 9.6 13 17 1024 0 20.8 28.0 43.9 115.2 110.1 378.8
08/05 00:30 11 91 9.11 9.6 11 17 1024 0 20.8 28.0 43.9 115.2 110.1 378.8
08/05 00:20 11 90 9.01 9.4 11 17 1024.1 0 20.6 27.8 43.5 114.1 108.7 373.9
08/05 00:10 11.1 89 8.97 9.4 15 17 1024.2 0 20.5 27.7 43.3 113.5 108.0 371.5
08/05 00:00 11.1 89 8.97 9.4 9 15 1024.4 0 20.5 27.8 43.3 113.5 108.0 371.6
07/05 23:50 11.1 88 8.87 9.2 7 9 1024.6 0 20.3 27.6 42.8 112.4 106.6 366.7
07/05 23:40 11.1 88 8.87 9.2 13 15 1024.5 0 20.3 27.6 42.8 112.4 106.6 366.7
07/05 23:30 11.1 87 8.76 9 7 13 1024.4 0 20.1 27.4 42.4 111.1 105.1 361.3
07/05 23:20 11.1 87 8.76 9 9 11 1024.4 0 20.1 27.4 42.4 111.1 105.1 361.3
07/05 23:10 11 87 8.71 8.9 11 13 1024.5 0 20.0 27.3 42.2 110.7 104.5 359.4
07/05 23:00 10.8 88 8.7 8.9 13 20 1024.5 0 19.9 27.4 42.3 110.9 104.6 359.8
07/05 22:50 10.7 89 8.74 9 15 19 1024.5 0 20.0 27.5 42.5 111.5 105.3 362.2
07/05 22:40 10.6 89 8.69 8.9 17 24 1024.5 0 19.9 27.4 42.3 111.1 104.8 360.2
07/05 22:30 10.5 89 8.63 8.8 17 28 1024.5 0 19.8 27.4 42.1 110.5 104.1 357.8
07/05 22:20 10.4 90 8.68 8.8 19 22 1024.6 0 19.9 27.5 42.4 111.2 104.9 360.7
07/05 22:10 10.3 89 8.53 8.6 17 20 1024.5 0 19.6 27.3 41.8 109.7 103.0 353.8
07/05 22:00 10.3 89 8.53 8.6 17 26 1024.5 0 19.6 27.3 41.8 109.7 103.0 353.8
07/05 21:50 10.3 88 8.43 8.4 17 20 1024.5 0 19.4 27.1 41.4 108.5 101.6 348.9
07/05 21:40 10.3 88 8.43 8.4 17 19 1024.6 0 19.4 27.1 41.4 108.5 101.6 349.0
07/05 21:30 10.4 86 8.29 8.2 17 30 1024.8 0 19.1 26.8 40.8 106.9 99.5 341.8
07/05 21:20 10.4 85 8.19 8 20 24 1024.9 0 18.9 26.7 40.4 105.8 98.1 337.0
07/05 21:10 10.4 84 8.1 7.8 22 26 1024.7 0 18.7 26.5 40.0 104.7 96.9 332.6
07/05 21:00 10.2 84 8 7.6 20 32 1024.8 0 18.5 26.4 39.7 103.9 95.8 328.7
07/05 20:50 10.2 83 7.9 7.4 20 26 1024.6 0 18.3 26.2 39.2 102.8 94.4 323.9
07/05 20:40 10.2 82 7.81 7.3 20 28 1024.5 0 18.1 26.1 38.9 101.8 93.2 319.6
07/05 20:30 10.2 78 7.42 6.5 24 37 1024.4 0 17.2 25.4 37.3 97.5 87.9 301.1
07/05 20:20 10.3 77 7.38 6.5 24 32 1024.4 0 17.1 25.3 37.1 96.9 87.3 298.9
07/05 20:10 10.3 76 7.28 6.3 28 35 1024.5 0 16.9 25.2 36.7 95.9 85.9 294.2
07/05 20:00 10.4 74 7.13 6 28 43 1024.6 0 16.6 24.9 36.0 94.1 83.8 286.9

Last Refresh: 08-May-2026 12:07:30

Bureau of Meteorology